This is the latest recevied weather packets stored in our database for station/object EA5CBT-13. If no packets are shown the sender has not sent any weather packets the latest 10 day(s).
| Time | Temp. | Humidity | Pressure | Rain* | Wind** | Luminosity | Snow |
|---|---|---|---|---|---|---|---|
| 1778132748 | 17.22° C | 80% | 1008.3 hPa | 0 mm | - | - | - |
| 1778124969 | 17.22° C | 77% | 1007.7 hPa | 0 mm | - | - | - |
| 1778121931 | 17.22° C | 79% | 1007.9 hPa | 0 mm | - | - | - |
| 1778119582 | 17.22° C | 81% | 1008.2 hPa | 0 mm | - | - | - |
| 1778117132 | 17.22° C | 79% | 1008.8 hPa | 0 mm | - | - | - |
| 1778115371 | 17.22° C | 79% | 1008.8 hPa | 0 mm | - | - | - |
| 1778109963 | 18.33° C | 73% | 1009.1 hPa | 0 mm | - | - | - |
| 1778109377 | 18.33° C | 73% | 1009.1 hPa | 0 mm | - | - | - |
| 1778107533 | 18.33° C | 72% | 1009.2 hPa | 0 mm | - | - | - |
| 1778104556 | 18.33° C | 71% | 1009.1 hPa | 0 mm | - | - | - |
| 1778102731 | 18.33° C | 72% | 1009.7 hPa | 0 mm | - | - | - |
| 1778101577 | 18.33° C | 73% | 1009.5 hPa | 0 mm | - | - | - |
| 1778099145 | 18.33° C | 73% | 1009.3 hPa | 0 mm | - | - | - |
| 1778097320 | 18.33° C | 72% | 1008.8 hPa | 0 mm | - | - | - |
| 1778088323 | 19.44° C | 70% | 1007.8 hPa | 0 mm | - | - | - |
| 1778085344 | 20.56° C | 69% | 1007.7 hPa | 0 mm | - | - | - |
| 1778082366 | 21.11° C | 64% | 1007.8 hPa | 0 mm | - | - | - |
| 1778077563 | 22.22° C | 60% | 1007.8 hPa | 0 mm | - | - | - |
| 1778075134 | 22.22° C | 57% | 1008.2 hPa | 0 mm | - | - | - |
| 1778070330 | 22.22° C | 63% | 1008.7 hPa | 0 mm | - | - | - |
| 1778069722 | 22.22° C | 60% | 1008.8 hPa | 0 mm | - | - | - |
| 1778067352 | 22.78° C | 57% | 1009 hPa | 0 mm | - | - | - |
| 1778066137 | 22.22° C | 62% | 1009.1 hPa | 0 mm | - | - | - |
| 1778064375 | 21.67° C | 63% | 1009.1 hPa | 0 mm | - | - | - |
| 1778063766 | 21.67° C | 62% | 1009.1 hPa | 0 mm | - | - | - |
* Rain latest hour (hover to see other rain measurements)
** Current wind speed in m/s (hover to see current wind gust speed)